createdAt,value
2023-02-28T00:01:26.287Z,4.23
2023-02-28T00:03:54.178Z,3.10
2023-02-28T00:06:23.712Z,3.93
2023-02-28T00:08:51.507Z,3.23
2023-02-28T00:11:19.247Z,3.17
2023-02-28T00:13:48.396Z,3.87
2023-02-28T00:16:18.964Z,3.20
2023-02-28T00:18:48.332Z,3.07
2023-02-28T00:21:16.473Z,3.50
2023-02-28T00:23:46.122Z,4.27
2023-02-28T00:26:13.944Z,3.40
2023-02-28T00:28:45.377Z,3.10
2023-02-28T00:31:13.254Z,4.07
2023-02-28T00:33:41.032Z,3.40
2023-02-28T00:36:11.380Z,4.87
2023-02-28T00:38:39.320Z,3.30
2023-02-28T00:41:08.960Z,3.00
2023-02-28T00:43:39.012Z,3.40
2023-02-28T00:46:07.236Z,3.27
2023-02-28T00:48:35.083Z,3.20
2023-02-28T00:51:03.345Z,3.07
2023-02-28T00:53:33.406Z,3.83
2023-02-28T00:56:01.525Z,3.33
2023-02-28T00:58:31.296Z,3.47
2023-02-28T01:00:59.058Z,3.30
2023-02-28T01:03:27.222Z,3.60
2023-02-28T01:05:55.053Z,3.60
2023-02-28T01:08:23.071Z,3.70
2023-02-28T01:10:52.090Z,3.73
2023-02-28T01:13:20.545Z,3.70
2023-02-28T01:15:52.447Z,3.20
2023-02-28T01:18:21.040Z,3.67
2023-02-28T01:20:49.185Z,4.53
2023-02-28T01:23:18.078Z,3.50
2023-02-28T01:25:45.891Z,4.17
2023-02-28T01:28:13.719Z,3.57
2023-02-28T01:30:41.498Z,5.30
2023-02-28T01:33:10.593Z,3.73
2023-02-28T01:35:39.081Z,5.30
2023-02-28T01:38:20.908Z,3.50
2023-02-28T01:40:49.045Z,3.50
2023-02-28T01:43:23.593Z,3.50
2023-02-28T01:45:51.661Z,3.43
2023-02-28T01:48:23.544Z,4.60
2023-02-28T01:50:51.941Z,3.67
2023-02-28T01:53:26.827Z,4.70
2023-02-28T01:55:55.820Z,3.43
2023-02-28T01:58:23.610Z,3.40
2023-02-28T02:00:51.373Z,7.33
2023-02-28T02:03:22.341Z,3.70
2023-02-28T02:05:50.130Z,3.57
2023-02-28T02:08:21.613Z,3.97
2023-02-28T02:10:54.279Z,3.43
2023-02-28T02:13:39.950Z,3.57
2023-02-28T02:16:17.704Z,3.47
2023-02-28T02:18:50.100Z,4.10
2023-02-28T02:21:44.890Z,4.03
2023-02-28T02:24:48.545Z,3.70
2023-02-28T02:27:25.668Z,3.80
2023-02-28T02:30:20.368Z,3.60
2023-02-28T02:33:24.356Z,3.80
2023-02-28T02:35:56.810Z,3.60
2023-02-28T02:38:34.804Z,3.70
2023-02-28T02:41:11.970Z,4.20
2023-02-28T02:43:46.680Z,3.57
2023-02-28T02:46:19.712Z,3.80
2023-02-28T02:48:48.918Z,4.10
2023-02-28T02:51:20.838Z,3.90
2023-02-28T02:53:54.038Z,4.00
2023-02-28T02:56:26.921Z,3.73
2023-02-28T02:59:00.017Z,5.07
2023-02-28T03:01:32.929Z,4.50
2023-02-28T03:04:04.898Z,4.77
2023-02-28T03:06:34.086Z,4.20
2023-02-28T03:09:02.502Z,4.30
2023-02-28T03:11:31.916Z,4.30
2023-02-28T03:14:37.122Z,4.40
2023-02-28T03:17:31.136Z,4.40
2023-02-28T03:20:08.411Z,4.17
2023-02-28T03:22:51.996Z,4.37
2023-02-28T03:25:25.954Z,4.23
2023-02-28T03:28:02.362Z,5.13
2023-02-28T03:30:38.317Z,4.70
2023-02-28T03:33:13.665Z,4.50
2023-02-28T03:35:45.964Z,4.40
2023-02-28T03:38:20.352Z,5.30
2023-02-28T03:40:52.642Z,6.03
2023-02-28T03:43:24.746Z,4.73
2023-02-28T03:45:54.514Z,4.97
2023-02-28T03:48:27.799Z,4.80
2023-02-28T03:50:59.299Z,4.90
2023-02-28T03:53:31.711Z,4.93
2023-02-28T03:56:03.409Z,5.43
2023-02-28T03:58:37.401Z,4.60
2023-02-28T04:01:09.352Z,4.73
2023-02-28T04:03:38.342Z,4.50
2023-02-28T04:06:08.062Z,4.87
2023-02-28T04:08:37.159Z,5.17
2023-02-28T04:11:09.035Z,4.60
2023-02-28T04:13:36.855Z,4.83
2023-02-28T04:16:18.728Z,6.60
2023-02-28T04:18:49.502Z,5.27
2023-02-28T04:21:21.434Z,5.73
2023-02-28T04:23:50.490Z,5.13
2023-02-28T04:26:18.205Z,5.77
2023-02-28T04:28:45.932Z,4.90
2023-02-28T04:31:13.637Z,5.23
2023-02-28T04:33:41.342Z,5.23
2023-02-28T04:36:10.809Z,5.30
2023-02-28T04:38:40.667Z,5.63
2023-02-28T04:41:09.740Z,4.90
2023-02-28T04:43:37.645Z,5.20
2023-02-28T04:46:06.676Z,5.33
2023-02-28T04:48:36.169Z,5.63
2023-02-28T04:51:04.794Z,5.13
2023-02-28T04:53:33.030Z,4.97
2023-02-28T04:56:00.990Z,5.60
2023-02-28T04:58:30.840Z,5.00
2023-02-28T05:01:04.048Z,5.50
2023-02-28T05:03:31.759Z,5.30
2023-02-28T05:05:59.434Z,5.13
2023-02-28T05:08:27.339Z,5.23
2023-02-28T05:10:55.008Z,6.43
2023-02-28T05:13:22.757Z,4.90
2023-02-28T05:15:51.853Z,5.33
2023-02-28T05:18:19.576Z,5.50
2023-02-28T05:20:48.384Z,5.87
2023-02-28T05:23:18.535Z,4.67
2023-02-28T05:25:46.223Z,7.00
2023-02-28T05:28:13.918Z,5.83
2023-02-28T05:30:41.674Z,5.60
2023-02-28T05:33:13.943Z,6.70
2023-02-28T05:35:42.065Z,6.20
2023-02-28T05:38:10.176Z,7.00
2023-02-28T05:40:40.394Z,5.40
2023-02-28T05:43:10.916Z,5.47
2023-02-28T05:45:38.599Z,6.60
2023-02-28T05:48:06.695Z,6.70
2023-02-28T05:50:35.750Z,6.20
2023-02-28T05:53:03.462Z,5.40
2023-02-28T05:55:31.201Z,5.63
2023-02-28T05:57:58.982Z,5.33
2023-02-28T06:00:27.502Z,6.83
2023-02-28T06:02:57.240Z,5.33
2023-02-28T06:05:25.403Z,6.53
2023-02-28T06:07:54.470Z,6.10
2023-02-28T06:10:22.171Z,5.93
2023-02-28T06:12:50.034Z,6.20
2023-02-28T06:15:18.641Z,6.57
2023-02-28T06:17:46.795Z,7.10
2023-02-28T06:20:14.752Z,6.53
2023-02-28T06:22:42.526Z,6.93
2023-02-28T06:25:12.605Z,8.47
2023-02-28T06:27:40.769Z,6.67
2023-02-28T06:30:09.746Z,7.17
2023-02-28T06:32:37.767Z,6.67
2023-02-28T06:35:06.292Z,7.90
2023-02-28T06:37:34.209Z,6.87
2023-02-28T06:40:01.883Z,6.37
2023-02-28T06:42:31.853Z,7.53
2023-02-28T06:45:00.044Z,7.17
2023-02-28T06:47:27.757Z,7.10
2023-02-28T06:49:55.480Z,6.83
2023-02-28T06:52:23.204Z,6.83
2023-02-28T06:55:00.547Z,7.80
2023-02-28T06:57:32.108Z,7.60
2023-02-28T07:00:00.892Z,7.00
2023-02-28T07:02:29.056Z,7.07
2023-02-28T07:04:56.822Z,7.03
2023-02-28T07:07:24.576Z,7.40
2023-02-28T07:09:52.305Z,7.67
2023-02-28T07:12:20.311Z,8.30
2023-02-28T07:14:49.376Z,6.97
2023-02-28T07:17:17.058Z,7.60
2023-02-28T07:19:44.736Z,6.57
2023-02-28T07:22:14.238Z,7.07
2023-02-28T07:24:43.213Z,9.17
2023-02-28T07:27:10.917Z,7.30
2023-02-28T07:29:39.155Z,8.20
2023-02-28T07:32:08.215Z,7.07
2023-02-28T07:34:36.074Z,9.47
2023-02-28T07:37:04.752Z,8.27
2023-02-28T07:39:32.478Z,8.83
2023-02-28T07:42:00.676Z,10.10
2023-02-28T07:44:28.461Z,9.47
2023-02-28T07:46:56.163Z,7.53
2023-02-28T07:49:25.265Z,7.73
2023-02-28T07:51:52.989Z,7.17
2023-02-28T07:54:20.711Z,9.63
2023-02-28T07:56:48.388Z,7.90
2023-02-28T07:59:16.387Z,8.27
2023-02-28T08:01:45.580Z,8.43
2023-02-28T08:04:13.329Z,7.57
2023-02-28T08:06:42.693Z,8.50
2023-02-28T08:09:10.438Z,8.63
2023-02-28T08:11:38.268Z,9.43
2023-02-28T08:14:05.971Z,9.47
2023-02-28T08:16:33.664Z,8.17
2023-02-28T08:19:01.314Z,8.37
2023-02-28T08:21:29.328Z,7.87
2023-02-28T08:23:58.682Z,8.60
2023-02-28T08:26:26.546Z,8.00
2023-02-28T08:28:56.133Z,8.83
2023-02-28T08:31:24.988Z,10.77
2023-02-28T08:33:54.055Z,10.50
2023-02-28T08:36:21.981Z,9.17
2023-02-28T08:38:49.683Z,9.20
2023-02-28T08:41:18.904Z,9.67
2023-02-28T08:43:46.604Z,9.23
2023-02-28T08:46:15.530Z,10.57
2023-02-28T08:48:44.692Z,9.43
2023-02-28T08:51:14.485Z,10.77
2023-02-28T08:53:42.441Z,11.03
2023-02-28T08:56:11.906Z,8.77
2023-02-28T08:58:41.800Z,9.07
2023-02-28T09:01:11.207Z,9.37
2023-02-28T09:03:38.946Z,9.30
2023-02-28T09:06:07.080Z,8.50
2023-02-28T09:08:34.793Z,9.70
2023-02-28T09:11:03.499Z,10.13
2023-02-28T09:13:33.636Z,9.83
2023-02-28T09:16:04.905Z,10.30
2023-02-28T09:18:32.675Z,10.23
2023-02-28T09:21:00.368Z,9.10
2023-02-28T09:23:28.159Z,10.10
2023-02-28T09:25:56.808Z,9.77
2023-02-28T09:28:24.663Z,8.83
2023-02-28T09:30:54.563Z,10.03
2023-02-28T09:33:24.098Z,10.10
2023-02-28T09:35:52.906Z,8.87
2023-02-28T09:38:20.745Z,8.37
2023-02-28T09:40:52.680Z,10.80
2023-02-28T09:43:23.822Z,9.90
2023-02-28T09:45:59.570Z,9.50
2023-02-28T09:48:33.511Z,11.93
2023-02-28T09:51:04.713Z,9.03
2023-02-28T09:53:35.140Z,10.10
2023-02-28T09:56:06.422Z,10.90
2023-02-28T09:58:42.164Z,8.87
2023-02-28T10:01:21.826Z,9.27
2023-02-28T10:03:59.005Z,9.77
2023-02-28T10:06:32.185Z,12.70
2023-02-28T10:09:04.890Z,9.70
2023-02-28T10:11:36.028Z,10.27
2023-02-28T10:14:08.926Z,11.83
2023-02-28T10:16:42.567Z,10.60
2023-02-28T10:19:16.894Z,10.83
2023-02-28T10:21:49.856Z,9.63
2023-02-28T10:24:25.046Z,11.47
2023-02-28T10:26:59.201Z,10.10
2023-02-28T10:29:26.897Z,9.33
2023-02-28T10:31:54.619Z,13.27
2023-02-28T10:34:23.721Z,10.07
2023-02-28T10:36:52.692Z,8.93
2023-02-28T10:39:40.942Z,9.77
2023-02-28T10:42:26.710Z,9.90
2023-02-28T10:45:08.813Z,9.40
2023-02-28T10:47:40.225Z,9.63
2023-02-28T10:50:29.616Z,10.07
2023-02-28T10:53:07.027Z,9.13
2023-02-28T10:55:34.749Z,9.80
2023-02-28T10:58:02.463Z,9.43
2023-02-28T11:00:36.673Z,10.07
2023-02-28T11:03:25.631Z,10.70
2023-02-28T11:05:54.743Z,9.90
2023-02-28T11:08:22.876Z,9.53
2023-02-28T11:10:57.265Z,10.40
2023-02-28T11:13:29.552Z,10.23
2023-02-28T11:15:59.595Z,9.00
2023-02-28T11:18:31.569Z,9.93
2023-02-28T11:21:03.466Z,8.83
2023-02-28T11:23:37.832Z,9.30
2023-02-28T11:26:10.530Z,8.80
2023-02-28T11:28:40.200Z,8.17
2023-02-28T11:31:20.320Z,9.20
2023-02-28T11:33:51.298Z,10.23
2023-02-28T11:36:25.537Z,9.87
2023-02-28T11:38:54.887Z,9.90
2023-02-28T11:41:44.405Z,8.73
2023-02-28T11:44:30.592Z,8.60
2023-02-28T11:47:03.204Z,8.37
2023-02-28T11:49:40.276Z,9.03
2023-02-28T11:52:22.655Z,9.57
2023-02-28T11:55:02.188Z,9.80
2023-02-28T11:57:39.135Z,9.00
2023-02-28T12:00:18.824Z,9.40
2023-02-28T12:03:02.411Z,9.27
2023-02-28T12:05:36.114Z,9.27
2023-02-28T12:08:17.917Z,8.90
2023-02-28T12:10:59.206Z,10.53
2023-02-28T12:13:31.461Z,9.27
2023-02-28T12:16:22.452Z,8.40
2023-02-28T12:19:04.980Z,9.17
2023-02-28T12:21:45.284Z,8.30
2023-02-28T12:24:28.683Z,8.77
2023-02-28T12:26:59.999Z,9.67
2023-02-28T12:29:31.021Z,9.47
2023-02-28T12:32:05.710Z,8.90
2023-02-28T12:34:37.366Z,8.57
2023-02-28T12:37:10.648Z,9.47
2023-02-28T12:39:50.636Z,8.83
2023-02-28T12:42:26.129Z,9.73
2023-02-28T12:44:58.624Z,8.60
2023-02-28T12:47:26.362Z,9.17
2023-02-28T12:49:59.209Z,9.20
2023-02-28T12:52:37.855Z,9.77
2023-02-28T12:55:16.461Z,9.33
2023-02-28T12:57:52.556Z,10.97
2023-02-28T13:00:24.940Z,10.00
2023-02-28T13:03:20.181Z,8.70
2023-02-28T13:06:10.567Z,8.57
2023-02-28T13:09:02.907Z,8.77
2023-02-28T13:11:35.065Z,10.00
2023-02-28T13:14:05.441Z,9.23
2023-02-28T13:17:11.458Z,8.97
2023-02-28T13:19:42.820Z,10.30
2023-02-28T13:22:19.571Z,8.70
2023-02-28T13:24:50.063Z,8.70
2023-02-28T13:27:40.031Z,8.50
2023-02-28T13:30:53.468Z,8.20
2023-02-28T13:33:27.110Z,8.40
2023-02-28T13:36:26.923Z,9.10
2023-02-28T13:38:56.398Z,8.73
2023-02-28T13:41:57.258Z,8.63
2023-02-28T13:44:27.665Z,10.03
2023-02-28T13:47:34.958Z,9.50
2023-02-28T13:50:25.055Z,8.37
2023-02-28T13:53:17.757Z,8.63
2023-02-28T13:55:50.770Z,8.33
2023-02-28T13:58:37.369Z,8.07
2023-02-28T14:01:30.402Z,8.90
2023-02-28T14:04:40.620Z,8.80
2023-02-28T14:07:09.673Z,9.60
2023-02-28T14:09:41.232Z,8.57
2023-02-28T14:12:46.523Z,8.70
2023-02-28T14:15:38.579Z,7.83
2023-02-28T14:18:18.113Z,8.37
2023-02-28T14:20:47.868Z,9.27
2023-02-28T14:23:26.800Z,9.03
2023-02-28T14:26:07.600Z,9.03
2023-02-28T14:28:50.264Z,8.87
2023-02-28T14:31:25.127Z,8.87
2023-02-28T14:34:12.041Z,8.33
2023-02-28T14:36:42.824Z,9.33
2023-02-28T14:39:15.787Z,9.07
2023-02-28T14:41:44.956Z,8.90
2023-02-28T14:44:18.563Z,9.10
2023-02-28T14:46:48.181Z,8.93
2023-02-28T14:49:21.839Z,9.00
2023-02-28T14:51:51.771Z,8.67
2023-02-28T14:54:25.458Z,8.50
2023-02-28T14:56:53.492Z,8.13
2023-02-28T14:59:31.315Z,8.50
2023-02-28T15:02:19.128Z,8.13
2023-02-28T15:04:56.828Z,8.07
2023-02-28T15:07:29.380Z,8.33
2023-02-28T15:10:09.965Z,8.53
2023-02-28T15:12:38.804Z,7.70
2023-02-28T15:15:08.689Z,9.50
2023-02-28T15:17:37.482Z,8.07
2023-02-28T15:20:07.581Z,8.33
2023-02-28T15:22:38.842Z,7.80
2023-02-28T15:25:09.092Z,8.83
2023-02-28T15:27:44.634Z,8.73
2023-02-28T15:30:18.855Z,8.53
2023-02-28T15:32:46.689Z,7.90
2023-02-28T15:35:29.254Z,8.37
2023-02-28T15:37:59.084Z,7.83
2023-02-28T15:40:29.974Z,8.23
2023-02-28T15:43:05.952Z,7.20
2023-02-28T15:45:43.146Z,7.87
2023-02-28T15:48:21.868Z,8.03
2023-02-28T15:50:54.491Z,9.27
2023-02-28T15:53:25.855Z,8.20
2023-02-28T15:55:57.191Z,8.40
2023-02-28T15:59:10.024Z,9.20
2023-02-28T16:01:39.194Z,8.63
2023-02-28T16:04:14.728Z,8.53
2023-02-28T16:06:45.293Z,8.83
2023-02-28T16:09:15.717Z,8.90
2023-02-28T16:11:46.830Z,8.70
2023-02-28T16:14:20.365Z,8.70
2023-02-28T16:16:50.213Z,8.97
2023-02-28T16:19:18.194Z,8.80
2023-02-28T16:21:47.503Z,9.53
2023-02-28T16:24:15.562Z,9.17
2023-02-28T16:26:47.299Z,10.07
2023-02-28T16:29:21.234Z,8.73
2023-02-28T16:31:49.074Z,10.40
2023-02-28T16:34:16.766Z,10.00
2023-02-28T16:36:44.469Z,8.37
2023-02-28T16:39:13.493Z,9.30
2023-02-28T16:41:45.028Z,8.43
2023-02-28T16:44:16.430Z,9.03
2023-02-28T16:46:44.169Z,8.90
2023-02-28T16:49:14.011Z,10.20
2023-02-28T16:51:41.727Z,9.70
2023-02-28T16:54:09.474Z,9.50
2023-02-28T16:56:41.849Z,9.63
2023-02-28T16:59:10.825Z,10.10
2023-02-28T17:01:38.624Z,10.97
2023-02-28T17:04:06.959Z,10.77
2023-02-28T17:06:34.687Z,10.47
2023-02-28T17:09:02.392Z,10.90
2023-02-28T17:11:30.463Z,10.73
2023-02-28T17:13:59.729Z,10.80
2023-02-28T17:16:31.094Z,10.60
2023-02-28T17:19:01.180Z,9.50
2023-02-28T17:21:29.210Z,11.43
2023-02-28T17:23:56.926Z,10.83
2023-02-28T17:26:25.670Z,10.80
2023-02-28T17:28:56.654Z,11.73
2023-02-28T17:31:26.078Z,9.63
2023-02-28T17:33:53.949Z,9.17
2023-02-28T17:36:25.373Z,10.63
2023-02-28T17:38:53.934Z,11.37
2023-02-28T17:41:21.652Z,9.57
2023-02-28T17:43:49.630Z,9.70
2023-02-28T17:46:21.325Z,10.27
2023-02-28T17:48:51.306Z,10.47
2023-02-28T17:51:20.580Z,10.93
2023-02-28T17:53:49.028Z,12.27
2023-02-28T17:56:19.709Z,11.33
2023-02-28T17:58:47.632Z,16.83
2023-02-28T18:01:15.607Z,19.03
2023-02-28T18:03:43.442Z,17.17
2023-02-28T18:06:17.095Z,12.37
2023-02-28T18:08:44.812Z,11.33
2023-02-28T18:11:18.252Z,12.83
2023-02-28T18:13:47.657Z,12.53
2023-02-28T18:16:16.268Z,11.20
2023-02-28T18:18:44.546Z,9.83
2023-02-28T18:21:15.846Z,12.13
2023-02-28T18:23:48.181Z,13.83
2023-02-28T18:26:16.004Z,15.63
2023-02-28T18:28:44.533Z,13.53
2023-02-28T18:31:16.031Z,11.27
2023-02-28T18:33:44.505Z,11.33
2023-02-28T18:36:13.574Z,10.60
2023-02-28T18:38:42.183Z,11.23
2023-02-28T18:41:10.219Z,10.77
2023-02-28T18:43:39.326Z,13.87
2023-02-28T18:46:09.795Z,13.10
2023-02-28T18:48:37.820Z,12.57
2023-02-28T18:51:09.755Z,12.87
2023-02-28T18:53:40.489Z,11.80
2023-02-28T18:56:09.841Z,11.13
2023-02-28T18:58:37.565Z,11.47
2023-02-28T19:01:13.672Z,12.10
2023-02-28T19:03:41.542Z,11.33
2023-02-28T19:06:10.485Z,12.57
2023-02-28T19:08:39.601Z,12.43
2023-02-28T19:11:09.278Z,11.83
2023-02-28T19:13:37.397Z,13.17
2023-02-28T19:16:06.666Z,11.67
2023-02-28T19:18:34.812Z,13.60
2023-02-28T19:21:02.782Z,12.17
2023-02-28T19:23:33.703Z,11.80
2023-02-28T19:26:07.373Z,13.10
2023-02-28T19:28:35.169Z,12.27
2023-02-28T19:31:03.359Z,12.10
2023-02-28T19:33:31.304Z,13.40
2023-02-28T19:36:00.875Z,11.67
2023-02-28T19:38:28.574Z,11.53
2023-02-28T19:41:03.213Z,10.90
2023-02-28T19:43:31.636Z,10.97
2023-02-28T19:45:59.644Z,11.13
2023-02-28T19:48:28.365Z,13.13
2023-02-28T19:50:59.611Z,10.80
2023-02-28T19:53:27.846Z,11.80
2023-02-28T19:55:56.355Z,13.40
2023-02-28T19:58:25.863Z,12.00
2023-02-28T20:00:53.891Z,11.17
2023-02-28T20:03:21.852Z,11.30
2023-02-28T20:06:00.951Z,12.27
2023-02-28T20:08:28.667Z,11.93
2023-02-28T20:10:56.369Z,12.23
2023-02-28T20:13:28.143Z,11.47
2023-02-28T20:15:56.102Z,13.27
2023-02-28T20:18:23.807Z,12.07
2023-02-28T20:20:51.579Z,12.97
2023-02-28T20:23:19.282Z,13.77
2023-02-28T20:25:47.025Z,11.17
2023-02-28T20:28:14.971Z,12.30
2023-02-28T20:30:44.087Z,11.60
2023-02-28T20:33:11.881Z,13.10
2023-02-28T20:35:39.636Z,13.00
2023-02-28T20:38:07.390Z,12.83
2023-02-28T20:40:35.166Z,13.23
2023-02-28T20:43:03.304Z,14.33
2023-02-28T20:45:31.765Z,12.90
2023-02-28T20:48:00.845Z,12.60
2023-02-28T20:50:28.578Z,12.13
2023-02-28T20:52:56.351Z,13.63
2023-02-28T20:55:24.439Z,12.70
2023-02-28T20:57:54.035Z,12.53
2023-02-28T21:00:22.600Z,12.77
2023-02-28T21:02:50.375Z,12.90
2023-02-28T21:05:19.557Z,12.87
2023-02-28T21:07:47.289Z,13.87
2023-02-28T21:10:15.013Z,14.67
2023-02-28T21:12:42.849Z,13.33
2023-02-28T21:15:11.316Z,13.00
2023-02-28T21:17:39.002Z,12.93
2023-02-28T21:20:07.581Z,14.03
2023-02-28T21:22:36.664Z,13.57
2023-02-28T21:25:04.671Z,11.73
2023-02-28T21:27:32.428Z,14.57
2023-02-28T21:30:00.165Z,13.60
2023-02-28T21:32:28.075Z,14.17
2023-02-28T21:34:55.800Z,14.03
2023-02-28T21:37:23.476Z,14.57
2023-02-28T21:39:52.857Z,14.17
2023-02-28T21:42:20.560Z,13.63
2023-02-28T21:44:48.265Z,14.17
2023-02-28T21:47:15.948Z,13.57
2023-02-28T21:49:43.653Z,14.03
2023-02-28T21:52:11.371Z,14.83
2023-02-28T21:54:39.091Z,13.53
2023-02-28T21:57:08.213Z,13.23
2023-02-28T21:59:36.361Z,13.17
2023-02-28T22:02:05.514Z,15.37
2023-02-28T22:04:33.374Z,14.57
2023-02-28T22:07:01.084Z,13.43
2023-02-28T22:09:29.291Z,13.30
2023-02-28T22:11:57.832Z,14.97
2023-02-28T22:14:26.944Z,13.50
2023-02-28T22:16:56.781Z,15.23
2023-02-28T22:19:27.633Z,19.23
2023-02-28T22:21:55.990Z,17.03
2023-02-28T22:24:25.009Z,13.43
2023-02-28T22:26:53.186Z,13.53
2023-02-28T22:29:21.061Z,14.83
2023-02-28T22:31:50.248Z,14.93
2023-02-28T22:34:18.047Z,14.37
2023-02-28T22:36:45.765Z,13.97
2023-02-28T22:39:13.982Z,16.47
2023-02-28T22:41:41.677Z,13.67
2023-02-28T22:44:09.671Z,14.50
2023-02-28T22:46:37.581Z,14.47
2023-02-28T22:49:07.032Z,15.27
2023-02-28T22:51:36.014Z,14.17
2023-02-28T22:54:04.324Z,16.77
2023-02-28T22:56:32.706Z,14.17
2023-02-28T22:59:02.163Z,17.23
2023-02-28T23:01:32.637Z,14.77
2023-02-28T23:04:00.882Z,13.90
2023-02-28T23:06:32.728Z,14.80
2023-02-28T23:09:03.182Z,14.63
2023-02-28T23:11:33.780Z,15.67
2023-02-28T23:14:02.083Z,15.27
2023-02-28T23:16:32.758Z,15.07
2023-02-28T23:19:02.631Z,15.60
2023-02-28T23:21:31.740Z,16.43
2023-02-28T23:23:59.617Z,15.13
2023-02-28T23:26:27.545Z,15.40
2023-02-28T23:28:55.450Z,16.20
2023-02-28T23:31:23.826Z,16.77
2023-02-28T23:33:51.600Z,14.13
2023-02-28T23:36:19.754Z,14.80
2023-02-28T23:38:50.389Z,16.13
2023-02-28T23:41:19.752Z,17.00
2023-02-28T23:43:47.854Z,16.27
2023-02-28T23:46:16.480Z,14.50
2023-02-28T23:48:44.257Z,16.03
2023-02-28T23:51:14.619Z,16.87
2023-02-28T23:53:44.228Z,15.17
2023-02-28T23:56:15.150Z,15.63
2023-02-28T23:58:43.669Z,14.43
